sensor_id;sensor_type;location;lat;lon;timestamp;pressure;altitude;pressure_sealevel;temperature;humidity
34235;BME280;20500;49.856;20.290;2022-08-19T00:00:09;98392.56;;;19.89;68.75
34235;BME280;20500;49.856;20.290;2022-08-19T00:03:18;98389.39;;;19.87;68.79
34235;BME280;20500;49.856;20.290;2022-08-19T00:06:24;98392.45;;;19.84;68.85
34235;BME280;20500;49.856;20.290;2022-08-19T00:09:31;98391.09;;;19.82;68.95
34235;BME280;20500;49.856;20.290;2022-08-19T00:12:37;98392.61;;;19.80;68.74
34235;BME280;20500;49.856;20.290;2022-08-19T00:15:50;98388.50;;;19.77;68.98
34235;BME280;20500;49.856;20.290;2022-08-19T00:18:57;98390.58;;;19.76;69.03
34235;BME280;20500;49.856;20.290;2022-08-19T00:22:04;98391.50;;;19.74;69.02
34235;BME280;20500;49.856;20.290;2022-08-19T00:25:10;98392.54;;;19.68;69.05
34235;BME280;20500;49.856;20.290;2022-08-19T00:28:19;98395.60;;;19.65;69.24
34235;BME280;20500;49.856;20.290;2022-08-19T00:31:26;98396.89;;;19.63;69.49
34235;BME280;20500;49.856;20.290;2022-08-19T00:34:32;98397.54;;;19.62;69.42
34235;BME280;20500;49.856;20.290;2022-08-19T00:37:38;98399.79;;;19.58;69.42
34235;BME280;20500;49.856;20.290;2022-08-19T00:40:47;98398.20;;;19.55;69.43
34235;BME280;20500;49.856;20.290;2022-08-19T00:44:04;98395.43;;;19.55;69.59
34235;BME280;20500;49.856;20.290;2022-08-19T00:47:11;98392.05;;;19.54;69.58
34235;BME280;20500;49.856;20.290;2022-08-19T00:50:21;98393.22;;;19.50;69.49
34235;BME280;20500;49.856;20.290;2022-08-19T00:53:28;98394.14;;;19.47;69.59
34235;BME280;20500;49.856;20.290;2022-08-19T00:56:37;98392.02;;;19.46;69.62
34235;BME280;20500;49.856;20.290;2022-08-19T00:59:47;98394.59;;;19.45;69.75
34235;BME280;20500;49.856;20.290;2022-08-19T01:03:08;98390.27;;;19.43;69.80
34235;BME280;20500;49.856;20.290;2022-08-19T01:06:14;98390.78;;;19.41;69.80
34235;BME280;20500;49.856;20.290;2022-08-19T01:09:24;98389.79;;;19.37;69.92
34235;BME280;20500;49.856;20.290;2022-08-19T01:12:31;98395.84;;;19.34;69.77
34235;BME280;20500;49.856;20.290;2022-08-19T01:15:42;98397.83;;;19.31;69.96
34235;BME280;20500;49.856;20.290;2022-08-19T01:18:50;98397.41;;;19.29;69.87
34235;BME280;20500;49.856;20.290;2022-08-19T01:22:01;98396.02;;;19.28;69.94
34235;BME280;20500;49.856;20.290;2022-08-19T01:25:21;98380.52;;;19.25;70.17
34235;BME280;20500;49.856;20.290;2022-08-19T01:28:30;98375.26;;;19.23;70.27
34235;BME280;20500;49.856;20.290;2022-08-19T01:31:43;98373.28;;;19.21;70.18
34235;BME280;20500;49.856;20.290;2022-08-19T01:34:49;98373.25;;;19.14;70.23
34235;BME280;20500;49.856;20.290;2022-08-19T01:38:04;98366.41;;;19.10;70.55
34235;BME280;20500;49.856;20.290;2022-08-19T01:41:13;98364.41;;;19.09;70.62
34235;BME280;20500;49.856;20.290;2022-08-19T01:44:19;98359.63;;;19.08;70.70
34235;BME280;20500;49.856;20.290;2022-08-19T01:47:28;98361.46;;;19.08;70.82
34235;BME280;20500;49.856;20.290;2022-08-19T01:50:35;98362.77;;;19.07;70.81
34235;BME280;20500;49.856;20.290;2022-08-19T01:53:45;98364.75;;;19.06;70.84
34235;BME280;20500;49.856;20.290;2022-08-19T01:56:53;98368.68;;;19.06;70.93
34235;BME280;20500;49.856;20.290;2022-08-19T02:00:04;98374.39;;;19.04;71.00
34235;BME280;20500;49.856;20.290;2022-08-19T02:03:12;98373.32;;;18.99;70.91
34235;BME280;20500;49.856;20.290;2022-08-19T02:06:18;98371.49;;;18.95;70.95
34235;BME280;20500;49.856;20.290;2022-08-19T02:09:31;98369.48;;;18.90;71.22
34235;BME280;20500;49.856;20.290;2022-08-19T02:12:38;98365.91;;;18.91;71.49
34235;BME280;20500;49.856;20.290;2022-08-19T02:15:44;98362.38;;;18.91;71.35
34235;BME280;20500;49.856;20.290;2022-08-19T02:18:51;98363.20;;;18.89;71.26
34235;BME280;20500;49.856;20.290;2022-08-19T02:21:57;98360.27;;;18.86;71.40
34235;BME280;20500;49.856;20.290;2022-08-19T02:25:04;98362.98;;;18.84;71.51
34235;BME280;20500;49.856;20.290;2022-08-19T02:28:11;98367.18;;;18.84;71.62
34235;BME280;20500;49.856;20.290;2022-08-19T02:31:24;98372.02;;;18.83;71.42
34235;BME280;20500;49.856;20.290;2022-08-19T02:34:32;98368.27;;;18.79;71.59
34235;BME280;20500;49.856;20.290;2022-08-19T02:37:38;98368.42;;;18.78;71.67
34235;BME280;20500;49.856;20.290;2022-08-19T02:41:03;98360.88;;;18.75;71.65
34235;BME280;20500;49.856;20.290;2022-08-19T02:44:10;98360.27;;;18.74;71.65
34235;BME280;20500;49.856;20.290;2022-08-19T02:47:35;98364.05;;;18.71;71.56
34235;BME280;20500;49.856;20.290;2022-08-19T02:50:42;98361.56;;;18.68;71.63
34235;BME280;20500;49.856;20.290;2022-08-19T02:53:57;98354.55;;;18.64;71.54
34235;BME280;20500;49.856;20.290;2022-08-19T02:57:05;98358.58;;;18.60;71.67
34235;BME280;20500;49.856;20.290;2022-08-19T03:00:14;98358.91;;;18.57;71.69
34235;BME280;20500;49.856;20.290;2022-08-19T03:03:21;98359.67;;;18.56;71.61
34235;BME280;20500;49.856;20.290;2022-08-19T03:06:29;98361.56;;;18.53;71.69
34235;BME280;20500;49.856;20.290;2022-08-19T03:09:38;98365.84;;;18.49;71.69
34235;BME280;20500;49.856;20.290;2022-08-19T03:12:44;98371.67;;;18.47;71.87
34235;BME280;20500;49.856;20.290;2022-08-19T03:15:51;98374.07;;;18.46;71.70
34235;BME280;20500;49.856;20.290;2022-08-19T03:18:57;98379.99;;;18.45;71.83
34235;BME280;20500;49.856;20.290;2022-08-19T03:22:05;98381.78;;;18.43;71.83
34235;BME280;20500;49.856;20.290;2022-08-19T03:25:12;98387.34;;;18.39;71.80
34235;BME280;20500;49.856;20.290;2022-08-19T03:28:21;98391.91;;;18.36;71.84
34235;BME280;20500;49.856;20.290;2022-08-19T03:31:28;98390.77;;;18.34;71.75
34235;BME280;20500;49.856;20.290;2022-08-19T03:34:56;98394.02;;;18.31;71.90
34235;BME280;20500;49.856;20.290;2022-08-19T03:38:02;98389.30;;;18.29;71.84
34235;BME280;20500;49.856;20.290;2022-08-19T03:41:10;98388.59;;;18.26;71.93
34235;BME280;20500;49.856;20.290;2022-08-19T03:44:20;98390.48;;;18.24;72.06
34235;BME280;20500;49.856;20.290;2022-08-19T03:47:26;98390.60;;;18.22;71.96
34235;BME280;20500;49.856;20.290;2022-08-19T03:50:32;98385.31;;;18.18;72.16
34235;BME280;20500;49.856;20.290;2022-08-19T03:53:39;98385.88;;;18.19;72.56
34235;BME280;20500;49.856;20.290;2022-08-19T03:56:46;98394.42;;;18.22;72.61
34235;BME280;20500;49.856;20.290;2022-08-19T03:59:52;98394.27;;;18.26;72.53
34235;BME280;20500;49.856;20.290;2022-08-19T04:03:07;98399.20;;;18.27;72.60
34235;BME280;20500;49.856;20.290;2022-08-19T04:06:15;98397.04;;;18.27;72.80
34235;BME280;20500;49.856;20.290;2022-08-19T04:09:22;98396.37;;;18.29;72.99
34235;BME280;20500;49.856;20.290;2022-08-19T04:12:28;98397.70;;;18.33;72.85
34235;BME280;20500;49.856;20.290;2022-08-19T04:15:38;98395.91;;;18.34;72.94
34235;BME280;20500;49.856;20.290;2022-08-19T04:18:46;98394.56;;;18.34;72.91
34235;BME280;20500;49.856;20.290;2022-08-19T04:21:54;98387.64;;;18.34;73.16
34235;BME280;20500;49.856;20.290;2022-08-19T04:25:00;98387.53;;;18.38;73.16
34235;BME280;20500;49.856;20.290;2022-08-19T04:28:08;98398.58;;;18.42;73.36
34235;BME280;20500;49.856;20.290;2022-08-19T04:31:16;98404.96;;;18.48;73.44
34235;BME280;20500;49.856;20.290;2022-08-19T04:34:25;98400.52;;;18.53;73.41
34235;BME280;20500;49.856;20.290;2022-08-19T04:37:32;98397.04;;;18.52;73.43
34235;BME280;20500;49.856;20.290;2022-08-19T04:40:43;98394.28;;;18.56;73.64
34235;BME280;20500;49.856;20.290;2022-08-19T04:44:07;98394.09;;;18.61;73.71
34235;BME280;20500;49.856;20.290;2022-08-19T04:47:13;98393.17;;;18.65;73.82
34235;BME280;20500;49.856;20.290;2022-08-19T04:50:28;98397.09;;;18.71;73.88
34235;BME280;20500;49.856;20.290;2022-08-19T04:53:35;98393.94;;;18.77;73.88
34235;BME280;20500;49.856;20.290;2022-08-19T04:56:42;98392.44;;;18.77;73.92
34235;BME280;20500;49.856;20.290;2022-08-19T04:59:48;98391.75;;;18.81;74.00
34235;BME280;20500;49.856;20.290;2022-08-19T05:02:55;98387.30;;;18.86;74.03
34235;BME280;20500;49.856;20.290;2022-08-19T05:06:06;98390.66;;;18.93;74.24
34235;BME280;20500;49.856;20.290;2022-08-19T05:09:13;98395.92;;;19.05;74.27
34235;BME280;20500;49.856;20.290;2022-08-19T05:12:20;98398.70;;;19.11;74.29
34235;BME280;20500;49.856;20.290;2022-08-19T05:15:32;98406.09;;;19.19;74.44
34235;BME280;20500;49.856;20.290;2022-08-19T05:18:39;98403.88;;;19.26;74.19
34235;BME280;20500;49.856;20.290;2022-08-19T05:22:00;98410.88;;;19.38;74.74
34235;BME280;20500;49.856;20.290;2022-08-19T05:25:23;98411.54;;;19.62;74.95
34235;BME280;20500;49.856;20.290;2022-08-19T05:28:30;98412.46;;;19.87;74.98
34235;BME280;20500;49.856;20.290;2022-08-19T05:31:37;98410.30;;;20.09;74.95
34235;BME280;20500;49.856;20.290;2022-08-19T05:34:45;98415.98;;;20.36;75.10
34235;BME280;20500;49.856;20.290;2022-08-19T05:37:51;98416.79;;;20.60;74.73
34235;BME280;20500;49.856;20.290;2022-08-19T05:41:05;98422.50;;;20.80;74.77
34235;BME280;20500;49.856;20.290;2022-08-19T05:44:12;98429.85;;;21.01;74.68
34235;BME280;20500;49.856;20.290;2022-08-19T05:47:20;98436.02;;;21.21;74.55
34235;BME280;20500;49.856;20.290;2022-08-19T05:50:26;98441.07;;;21.36;74.42
34235;BME280;20500;49.856;20.290;2022-08-19T05:53:32;98441.90;;;21.54;74.38
34235;BME280;20500;49.856;20.290;2022-08-19T05:56:41;98448.09;;;21.73;74.44
34235;BME280;20500;49.856;20.290;2022-08-19T05:59:48;98448.02;;;21.95;74.40
34235;BME280;20500;49.856;20.290;2022-08-19T06:03:02;98443.69;;;22.19;74.05
34235;BME280;20500;49.856;20.290;2022-08-19T06:06:17;98449.06;;;22.38;73.92
34235;BME280;20500;49.856;20.290;2022-08-19T06:09:23;98444.38;;;22.57;74.02
34235;BME280;20500;49.856;20.290;2022-08-19T06:12:31;98440.17;;;22.78;73.62
34235;BME280;20500;49.856;20.290;2022-08-19T06:15:38;98433.76;;;22.97;73.64
34235;BME280;20500;49.856;20.290;2022-08-19T06:18:49;98432.69;;;23.19;73.67
34235;BME280;20500;49.856;20.290;2022-08-19T06:21:58;98436.85;;;23.48;73.46
34235;BME280;20500;49.856;20.290;2022-08-19T06:25:07;98440.42;;;23.71;73.15
34235;BME280;20500;49.856;20.290;2022-08-19T06:28:14;98435.91;;;23.86;73.07
34235;BME280;20500;49.856;20.290;2022-08-19T06:31:24;98432.79;;;24.04;72.80
34235;BME280;20500;49.856;20.290;2022-08-19T06:34:31;98439.20;;;24.24;72.82
34235;BME280;20500;49.856;20.290;2022-08-19T06:37:39;98440.36;;;24.46;72.54
34235;BME280;20500;49.856;20.290;2022-08-19T06:40:47;98441.18;;;24.66;72.28
34235;BME280;20500;49.856;20.290;2022-08-19T06:43:54;98445.03;;;24.86;72.12
34235;BME280;20500;49.856;20.290;2022-08-19T06:47:02;98446.60;;;25.07;71.89
34235;BME280;20500;49.856;20.290;2022-08-19T06:50:18;98447.17;;;25.31;71.67
34235;BME280;20500;49.856;20.290;2022-08-19T06:53:24;98452.98;;;25.52;71.58
34235;BME280;20500;49.856;20.290;2022-08-19T06:56:33;98453.12;;;25.75;71.17
34235;BME280;20500;49.856;20.290;2022-08-19T06:59:39;98452.80;;;25.95;71.06
34235;BME280;20500;49.856;20.290;2022-08-19T07:02:46;98446.83;;;26.17;70.81
34235;BME280;20500;49.856;20.290;2022-08-19T07:06:04;98445.50;;;26.42;70.19
34235;BME280;20500;49.856;20.290;2022-08-19T07:09:25;98456.12;;;26.64;69.90
34235;BME280;20500;49.856;20.290;2022-08-19T07:12:34;98458.98;;;26.85;69.77
34235;BME280;20500;49.856;20.290;2022-08-19T07:15:41;98456.48;;;27.06;69.54
34235;BME280;20500;49.856;20.290;2022-08-19T07:18:48;98462.74;;;27.26;69.05
34235;BME280;20500;49.856;20.290;2022-08-19T07:21:55;98462.60;;;27.43;68.42
34235;BME280;20500;49.856;20.290;2022-08-19T07:25:02;98463.53;;;27.59;67.85
34235;BME280;20500;49.856;20.290;2022-08-19T07:28:09;98469.73;;;27.75;67.59
34235;BME280;20500;49.856;20.290;2022-08-19T07:31:29;98474.84;;;27.89;66.91
34235;BME280;20500;49.856;20.290;2022-08-19T07:34:35;98479.75;;;27.98;66.64
34235;BME280;20500;49.856;20.290;2022-08-19T07:37:43;98481.09;;;28.11;66.38
34235;BME280;20500;49.856;20.290;2022-08-19T07:40:50;98482.09;;;28.31;65.72
34235;BME280;20500;49.856;20.290;2022-08-19T07:43:56;98483.70;;;28.40;65.28
34235;BME280;20500;49.856;20.290;2022-08-19T07:47:02;98485.02;;;28.54;65.06
34235;BME280;20500;49.856;20.290;2022-08-19T07:50:10;98476.95;;;28.70;64.61
34235;BME280;20500;49.856;20.290;2022-08-19T07:53:17;98473.92;;;28.77;64.09
34235;BME280;20500;49.856;20.290;2022-08-19T07:56:23;98467.29;;;28.87;63.91
34235;BME280;20500;49.856;20.290;2022-08-19T07:59:30;98466.33;;;29.02;63.49
34235;BME280;20500;49.856;20.290;2022-08-19T08:02:36;98470.58;;;29.14;62.92
34235;BME280;20500;49.856;20.290;2022-08-19T08:05:43;98481.56;;;29.29;62.83
34235;BME280;20500;49.856;20.290;2022-08-19T08:09:08;98484.61;;;29.46;62.43
34235;BME280;20500;49.856;20.290;2022-08-19T08:12:25;98484.91;;;29.59;62.05
34235;BME280;20500;49.856;20.290;2022-08-19T08:15:38;98486.46;;;29.70;61.46
34235;BME280;20500;49.856;20.290;2022-08-19T08:18:47;98490.37;;;29.85;61.52
34235;BME280;20500;49.856;20.290;2022-08-19T08:21:59;98491.54;;;30.01;61.09
34235;BME280;20500;49.856;20.290;2022-08-19T08:25:08;98492.83;;;30.12;60.81
34235;BME280;20500;49.856;20.290;2022-08-19T08:28:15;98496.05;;;30.20;60.27
34235;BME280;20500;49.856;20.290;2022-08-19T08:31:21;98496.07;;;30.27;59.71
34235;BME280;20500;49.856;20.290;2022-08-19T08:34:28;98496.25;;;30.34;59.49
34235;BME280;20500;49.856;20.290;2022-08-19T08:37:34;98496.90;;;30.45;59.06
34235;BME280;20500;49.856;20.290;2022-08-19T08:40:45;98500.02;;;30.54;58.79
34235;BME280;20500;49.856;20.290;2022-08-19T08:43:54;98501.36;;;30.62;58.32
34235;BME280;20500;49.856;20.290;2022-08-19T08:47:04;98494.10;;;30.64;57.87
34235;BME280;20500;49.856;20.290;2022-08-19T08:50:18;98494.20;;;30.70;57.63
34235;BME280;20500;49.856;20.290;2022-08-19T08:53:25;98500.55;;;30.70;56.99
34235;BME280;20500;49.856;20.290;2022-08-19T08:56:39;98497.35;;;30.72;57.11
34235;BME280;20500;49.856;20.290;2022-08-19T08:59:47;98498.45;;;30.86;56.89
34235;BME280;20500;49.856;20.290;2022-08-19T09:02:56;98494.52;;;30.93;56.58
34235;BME280;20500;49.856;20.290;2022-08-19T09:06:07;98497.69;;;30.95;56.49
34235;BME280;20500;49.856;20.290;2022-08-19T09:09:22;98494.05;;;30.95;56.18
34235;BME280;20500;49.856;20.290;2022-08-19T09:12:41;98487.63;;;31.00;55.86
34235;BME280;20500;49.856;20.290;2022-08-19T09:15:55;98486.86;;;31.14;55.71
34235;BME280;20500;49.856;20.290;2022-08-19T09:19:07;98480.11;;;31.25;55.58
34235;BME280;20500;49.856;20.290;2022-08-19T09:22:15;98482.18;;;31.33;55.58
34235;BME280;20500;49.856;20.290;2022-08-19T09:25:29;98480.02;;;31.41;55.34
34235;BME280;20500;49.856;20.290;2022-08-19T09:28:37;98475.81;;;31.45;55.13
34235;BME280;20500;49.856;20.290;2022-08-19T09:31:47;98476.35;;;31.50;54.99
34235;BME280;20500;49.856;20.290;2022-08-19T09:34:54;98468.23;;;31.54;54.54
34235;BME280;20500;49.856;20.290;2022-08-19T09:38:02;98472.20;;;31.60;54.59
34235;BME280;20500;49.856;20.290;2022-08-19T09:41:10;98469.77;;;31.62;54.22
34235;BME280;20500;49.856;20.290;2022-08-19T09:44:18;98474.84;;;31.71;54.03
34235;BME280;20500;49.856;20.290;2022-08-19T09:47:25;98474.81;;;31.83;54.05
34235;BME280;20500;49.856;20.290;2022-08-19T09:50:30;98473.76;;;31.94;53.87
34235;BME280;20500;49.856;20.290;2022-08-19T09:53:40;98471.66;;;32.00;53.62
34235;BME280;20500;49.856;20.290;2022-08-19T09:56:46;98470.75;;;32.05;53.57
34235;BME280;20500;49.856;20.290;2022-08-19T09:59:51;98468.67;;;32.17;53.28
34235;BME280;20500;49.856;20.290;2022-08-19T10:02:57;98461.27;;;32.21;52.98
34235;BME280;20500;49.856;20.290;2022-08-19T10:06:05;98458.17;;;32.22;52.82
34235;BME280;20500;49.856;20.290;2022-08-19T10:09:20;98447.85;;;32.30;52.66
34235;BME280;20500;49.856;20.290;2022-08-19T10:12:38;98443.35;;;32.41;52.15
34235;BME280;20500;49.856;20.290;2022-08-19T10:15:44;98447.83;;;32.44;52.15
34235;BME280;20500;49.856;20.290;2022-08-19T10:18:54;98444.90;;;32.52;51.89
34235;BME280;20500;49.856;20.290;2022-08-19T10:22:04;98443.73;;;32.52;51.81
34235;BME280;20500;49.856;20.290;2022-08-19T10:25:15;98447.49;;;32.54;51.97
34235;BME280;20500;49.856;20.290;2022-08-19T10:28:21;98450.57;;;32.65;51.73
34235;BME280;20500;49.856;20.290;2022-08-19T10:31:30;98449.64;;;32.76;51.79
34235;BME280;20500;49.856;20.290;2022-08-19T10:34:56;98444.92;;;32.86;51.50
34235;BME280;20500;49.856;20.290;2022-08-19T10:38:02;98442.29;;;32.84;51.31
34235;BME280;20500;49.856;20.290;2022-08-19T10:41:13;98434.33;;;32.82;51.31
34235;BME280;20500;49.856;20.290;2022-08-19T10:44:19;98432.10;;;32.81;51.34
34235;BME280;20500;49.856;20.290;2022-08-19T10:47:26;98425.42;;;32.85;51.46
34235;BME280;20500;49.856;20.290;2022-08-19T10:50:35;98424.80;;;32.98;51.21
34235;BME280;20500;49.856;20.290;2022-08-19T10:54:00;98424.61;;;33.15;51.03
34235;BME280;20500;49.856;20.290;2022-08-19T10:57:10;98425.96;;;33.26;50.95
34235;BME280;20500;49.856;20.290;2022-08-19T11:00:16;98423.27;;;33.38;50.87
34235;BME280;20500;49.856;20.290;2022-08-19T11:03:23;98427.57;;;33.43;50.41
34235;BME280;20500;49.856;20.290;2022-08-19T11:06:30;98428.92;;;33.49;50.55
34235;BME280;20500;49.856;20.290;2022-08-19T11:09:40;98431.28;;;33.50;49.65
34235;BME280;20500;49.856;20.290;2022-08-19T11:12:46;98428.60;;;33.49;49.51
34235;BME280;20500;49.856;20.290;2022-08-19T11:15:59;98424.95;;;33.51;49.38
34235;BME280;20500;49.856;20.290;2022-08-19T11:19:11;98422.44;;;33.62;49.01
34235;BME280;20500;49.856;20.290;2022-08-19T11:22:18;98420.46;;;33.77;48.89
34235;BME280;20500;49.856;20.290;2022-08-19T11:25:24;98420.77;;;33.79;48.80
34235;BME280;20500;49.856;20.290;2022-08-19T11:28:30;98417.67;;;33.81;48.50
34235;BME280;20500;49.856;20.290;2022-08-19T11:31:36;98415.04;;;33.81;48.53
34235;BME280;20500;49.856;20.290;2022-08-19T11:34:43;98405.31;;;33.87;48.38
34235;BME280;20500;49.856;20.290;2022-08-19T11:37:49;98394.77;;;33.88;47.92
34235;BME280;20500;49.856;20.290;2022-08-19T11:41:00;98393.83;;;33.98;47.94
34235;BME280;20500;49.856;20.290;2022-08-19T11:44:07;98395.31;;;34.14;48.00
34235;BME280;20500;49.856;20.290;2022-08-19T11:47:13;98399.10;;;34.19;47.35
34235;BME280;20500;49.856;20.290;2022-08-19T11:50:19;98401.48;;;34.25;47.33
34235;BME280;20500;49.856;20.290;2022-08-19T11:53:25;98399.38;;;34.26;46.81
34235;BME280;20500;49.856;20.290;2022-08-19T11:56:31;98393.95;;;34.24;46.53
34235;BME280;20500;49.856;20.290;2022-08-19T11:59:37;98390.29;;;34.31;46.58
34235;BME280;20500;49.856;20.290;2022-08-19T12:02:42;98387.80;;;34.27;46.04
34235;BME280;20500;49.856;20.290;2022-08-19T12:05:48;98385.86;;;34.16;45.45
34235;BME280;20500;49.856;20.290;2022-08-19T12:08:55;98386.46;;;34.17;45.30
34235;BME280;20500;49.856;20.290;2022-08-19T12:12:01;98390.01;;;34.15;45.03
34235;BME280;20500;49.856;20.290;2022-08-19T12:15:09;98391.29;;;34.15;44.89
34235;BME280;20500;49.856;20.290;2022-08-19T12:18:16;98392.60;;;34.21;44.63
34235;BME280;20500;49.856;20.290;2022-08-19T12:21:24;98392.42;;;34.17;44.23
34235;BME280;20500;49.856;20.290;2022-08-19T12:24:33;98394.74;;;34.11;43.72
34235;BME280;20500;49.856;20.290;2022-08-19T12:27:39;98384.65;;;34.06;43.69
34235;BME280;20500;49.856;20.290;2022-08-19T12:30:53;98387.23;;;34.01;43.24
34235;BME280;20500;49.856;20.290;2022-08-19T12:33:59;98388.91;;;33.94;43.09
34235;BME280;20500;49.856;20.290;2022-08-19T12:37:06;98380.84;;;33.91;42.69
34235;BME280;20500;49.856;20.290;2022-08-19T12:40:13;98382.58;;;33.95;42.57
34235;BME280;20500;49.856;20.290;2022-08-19T12:43:20;98383.14;;;33.93;42.02
34235;BME280;20500;49.856;20.290;2022-08-19T12:46:26;98381.48;;;33.89;42.16
34235;BME280;20500;49.856;20.290;2022-08-19T12:49:33;98380.63;;;33.92;41.73
34235;BME280;20500;49.856;20.290;2022-08-19T12:52:59;98380.98;;;33.96;41.83
34235;BME280;20500;49.856;20.290;2022-08-19T12:56:05;98376.38;;;33.98;41.34
34235;BME280;20500;49.856;20.290;2022-08-19T12:59:15;98374.80;;;33.96;41.41
34235;BME280;20500;49.856;20.290;2022-08-19T13:02:23;98368.56;;;33.93;41.24
34235;BME280;20500;49.856;20.290;2022-08-19T13:05:32;98359.15;;;33.94;41.30
34235;BME280;20500;49.856;20.290;2022-08-19T13:08:39;98357.21;;;33.92;41.07
34235;BME280;20500;49.856;20.290;2022-08-19T13:11:46;98359.33;;;33.85;40.93
34235;BME280;20500;49.856;20.290;2022-08-19T13:14:52;98359.29;;;33.84;41.05
34235;BME280;20500;49.856;20.290;2022-08-19T13:17:58;98361.43;;;33.83;40.95
34235;BME280;20500;49.856;20.290;2022-08-19T13:21:05;98359.64;;;33.87;41.01
34235;BME280;20500;49.856;20.290;2022-08-19T13:24:11;98357.66;;;33.96;41.20
34235;BME280;20500;49.856;20.290;2022-08-19T13:27:17;98360.38;;;33.95;41.12
34235;BME280;20500;49.856;20.290;2022-08-19T13:30:23;98361.15;;;33.93;41.07
34235;BME280;20500;49.856;20.290;2022-08-19T13:33:46;98362.31;;;33.90;40.88
34235;BME280;20500;49.856;20.290;2022-08-19T13:36:53;98359.45;;;33.86;40.92
34235;BME280;20500;49.856;20.290;2022-08-19T13:40:00;98362.05;;;33.77;40.89
34235;BME280;20500;49.856;20.290;2022-08-19T13:43:06;98357.15;;;33.65;40.95
34235;BME280;20500;49.856;20.290;2022-08-19T13:46:26;98353.41;;;33.57;40.78
34235;BME280;20500;49.856;20.290;2022-08-19T13:49:35;98351.26;;;33.51;40.96
34235;BME280;20500;49.856;20.290;2022-08-19T13:52:41;98348.21;;;33.51;41.00
34235;BME280;20500;49.856;20.290;2022-08-19T13:55:47;98347.05;;;33.48;40.93
34235;BME280;20500;49.856;20.290;2022-08-19T13:58:54;98345.13;;;33.44;41.07
34235;BME280;20500;49.856;20.290;2022-08-19T14:02:02;98348.61;;;33.40;41.14
34235;BME280;20500;49.856;20.290;2022-08-19T14:05:12;98341.14;;;33.32;40.95
34235;BME280;20500;49.856;20.290;2022-08-19T14:08:18;98345.45;;;33.26;41.19
34235;BME280;20500;49.856;20.290;2022-08-19T14:11:24;98335.93;;;33.23;41.15
34235;BME280;20500;49.856;20.290;2022-08-19T14:14:30;98325.95;;;33.19;41.18
34235;BME280;20500;49.856;20.290;2022-08-19T14:17:38;98322.49;;;33.19;41.28
34235;BME280;20500;49.856;20.290;2022-08-19T14:20:44;98326.18;;;33.21;41.32
34235;BME280;20500;49.856;20.290;2022-08-19T14:23:50;98327.98;;;33.19;41.21
34235;BME280;20500;49.856;20.290;2022-08-19T14:26:56;98328.61;;;33.16;41.46
34235;BME280;20500;49.856;20.290;2022-08-19T14:30:03;98333.86;;;33.15;41.34
34235;BME280;20500;49.856;20.290;2022-08-19T14:33:09;98331.70;;;33.13;41.31
34235;BME280;20500;49.856;20.290;2022-08-19T14:36:14;98330.59;;;33.09;40.98
34235;BME280;20500;49.856;20.290;2022-08-19T14:39:20;98334.59;;;33.08;41.05
34235;BME280;20500;49.856;20.290;2022-08-19T14:42:26;98335.30;;;33.05;41.04
34235;BME280;20500;49.856;20.290;2022-08-19T14:45:34;98333.55;;;33.01;41.03
34235;BME280;20500;49.856;20.290;2022-08-19T14:48:40;98332.20;;;32.99;40.95
34235;BME280;20500;49.856;20.290;2022-08-19T14:51:46;98328.02;;;32.97;40.81
34235;BME280;20500;49.856;20.290;2022-08-19T14:54:52;98318.73;;;32.94;40.95
34235;BME280;20500;49.856;20.290;2022-08-19T14:57:58;98316.24;;;32.86;40.82
34235;BME280;20500;49.856;20.290;2022-08-19T15:01:09;98321.56;;;32.75;40.96
34235;BME280;20500;49.856;20.290;2022-08-19T15:04:15;98323.71;;;32.64;41.14
34235;BME280;20500;49.856;20.290;2022-08-19T15:07:21;98324.22;;;32.54;41.21
34235;BME280;20500;49.856;20.290;2022-08-19T15:10:32;98321.07;;;32.41;41.52
34235;BME280;20500;49.856;20.290;2022-08-19T15:13:38;98318.45;;;32.27;41.34
34235;BME280;20500;49.856;20.290;2022-08-19T15:16:44;98313.34;;;32.14;41.59
34235;BME280;20500;49.856;20.290;2022-08-19T15:19:50;98303.54;;;31.96;41.72
34235;BME280;20500;49.856;20.290;2022-08-19T15:22:56;98303.42;;;31.78;41.74
34235;BME280;20500;49.856;20.290;2022-08-19T15:26:03;98297.92;;;31.63;41.67
34235;BME280;20500;49.856;20.290;2022-08-19T15:29:09;98294.42;;;31.51;41.66
34235;BME280;20500;49.856;20.290;2022-08-19T15:32:17;98288.39;;;31.38;41.79
34235;BME280;20500;49.856;20.290;2022-08-19T15:35:24;98285.94;;;31.28;42.01
34235;BME280;20500;49.856;20.290;2022-08-19T15:38:30;98284.88;;;31.20;41.98
34235;BME280;20500;49.856;20.290;2022-08-19T15:41:43;98279.66;;;31.09;42.08
34235;BME280;20500;49.856;20.290;2022-08-19T15:44:49;98278.01;;;31.02;42.35
34235;BME280;20500;49.856;20.290;2022-08-19T15:47:57;98285.61;;;30.94;42.44
34235;BME280;20500;49.856;20.290;2022-08-19T15:51:03;98283.61;;;30.85;42.53
34235;BME280;20500;49.856;20.290;2022-08-19T15:54:12;98282.00;;;30.74;42.72
34235;BME280;20500;49.856;20.290;2022-08-19T15:57:17;98279.48;;;30.65;42.79
34235;BME280;20500;49.856;20.290;2022-08-19T16:00:41;98283.28;;;30.56;43.03
34235;BME280;20500;49.856;20.290;2022-08-19T16:04:03;98283.13;;;30.47;43.37
34235;BME280;20500;49.856;20.290;2022-08-19T16:07:27;98282.11;;;30.35;43.59
34235;BME280;20500;49.856;20.290;2022-08-19T16:10:33;98285.89;;;30.25;43.77
34235;BME280;20500;49.856;20.290;2022-08-19T16:13:40;98278.13;;;30.14;43.79
34235;BME280;20500;49.856;20.290;2022-08-19T16:16:47;98272.90;;;30.03;44.08
34235;BME280;20500;49.856;20.290;2022-08-19T16:19:53;98274.20;;;29.95;44.30
34235;BME280;20500;49.856;20.290;2022-08-19T16:22:59;98283.33;;;29.86;44.67
34235;BME280;20500;49.856;20.290;2022-08-19T16:26:06;98289.26;;;29.78;45.09